sensor_id;sensor_type;location;lat;lon;timestamp;P1;durP1;ratioP1;P2;durP2;ratioP2
23745;SDS011;12053;48.878;9.632;2022-12-18T00:02:11;42.22;;;21.27;;
23745;SDS011;12053;48.878;9.632;2022-12-18T00:04:38;43.03;;;19.33;;
23745;SDS011;12053;48.878;9.632;2022-12-18T00:07:05;45.13;;;21.40;;
23745;SDS011;12053;48.878;9.632;2022-12-18T00:09:32;39.33;;;19.95;;
23745;SDS011;12053;48.878;9.632;2022-12-18T00:12:05;40.80;;;20.00;;
23745;SDS011;12053;48.878;9.632;2022-12-18T00:14:43;41.00;;;20.38;;
23745;SDS011;12053;48.878;9.632;2022-12-18T00:17:10;41.88;;;21.23;;
23745;SDS011;12053;48.878;9.632;2022-12-18T00:19:38;43.35;;;19.95;;
23745;SDS011;12053;48.878;9.632;2022-12-18T00:22:05;41.95;;;19.75;;
23745;SDS011;12053;48.878;9.632;2022-12-18T00:24:32;41.13;;;19.10;;
23745;SDS011;12053;48.878;9.632;2022-12-18T00:26:59;47.30;;;23.77;;
23745;SDS011;12053;48.878;9.632;2022-12-18T00:29:27;39.53;;;20.60;;
23745;SDS011;12053;48.878;9.632;2022-12-18T00:31:54;41.70;;;22.10;;
23745;SDS011;12053;48.878;9.632;2022-12-18T00:34:21;40.50;;;20.42;;
23745;SDS011;12053;48.878;9.632;2022-12-18T00:36:48;38.20;;;20.25;;
23745;SDS011;12053;48.878;9.632;2022-12-18T00:39:15;40.50;;;21.00;;
23745;SDS011;12053;48.878;9.632;2022-12-18T00:41:43;40.72;;;19.90;;
23745;SDS011;12053;48.878;9.632;2022-12-18T00:44:29;40.83;;;20.58;;
23745;SDS011;12053;48.878;9.632;2022-12-18T00:46:57;37.53;;;18.23;;
23745;SDS011;12053;48.878;9.632;2022-12-18T00:49:24;42.58;;;19.48;;
23745;SDS011;12053;48.878;9.632;2022-12-18T00:51:51;44.88;;;20.70;;
23745;SDS011;12053;48.878;9.632;2022-12-18T00:54:18;37.10;;;18.95;;
23745;SDS011;12053;48.878;9.632;2022-12-18T00:56:45;42.17;;;19.27;;
23745;SDS011;12053;48.878;9.632;2022-12-18T00:59:15;40.05;;;18.77;;
23745;SDS011;12053;48.878;9.632;2022-12-18T01:01:43;40.40;;;19.05;;
23745;SDS011;12053;48.878;9.632;2022-12-18T01:04:11;39.83;;;17.48;;
23745;SDS011;12053;48.878;9.632;2022-12-18T01:06:38;32.38;;;15.93;;
23745;SDS011;12053;48.878;9.632;2022-12-18T01:09:05;22.88;;;11.45;;
23745;SDS011;12053;48.878;9.632;2022-12-18T01:11:32;38.38;;;17.48;;
23745;SDS011;12053;48.878;9.632;2022-12-18T01:14:00;38.60;;;18.42;;
23745;SDS011;12053;48.878;9.632;2022-12-18T01:16:27;41.20;;;18.90;;
23745;SDS011;12053;48.878;9.632;2022-12-18T01:18:54;37.03;;;17.38;;
23745;SDS011;12053;48.878;9.632;2022-12-18T01:21:22;35.65;;;17.58;;
23745;SDS011;12053;48.878;9.632;2022-12-18T01:23:54;38.58;;;19.15;;
23745;SDS011;12053;48.878;9.632;2022-12-18T01:26:21;32.72;;;16.02;;
23745;SDS011;12053;48.878;9.632;2022-12-18T01:28:49;34.67;;;18.27;;
23745;SDS011;12053;48.878;9.632;2022-12-18T01:31:17;36.53;;;19.75;;
23745;SDS011;12053;48.878;9.632;2022-12-18T01:33:48;40.80;;;19.80;;
23745;SDS011;12053;48.878;9.632;2022-12-18T01:36:20;38.40;;;20.08;;
23745;SDS011;12053;48.878;9.632;2022-12-18T01:38:48;45.13;;;24.33;;
23745;SDS011;12053;48.878;9.632;2022-12-18T01:41:16;40.17;;;20.45;;
23745;SDS011;12053;48.878;9.632;2022-12-18T01:43:48;47.00;;;23.90;;
23745;SDS011;12053;48.878;9.632;2022-12-18T01:46:16;40.05;;;20.65;;
23745;SDS011;12053;48.878;9.632;2022-12-18T01:48:44;44.30;;;20.10;;
23745;SDS011;12053;48.878;9.632;2022-12-18T01:51:12;35.13;;;17.83;;
23745;SDS011;12053;48.878;9.632;2022-12-18T01:53:40;32.75;;;17.77;;
23745;SDS011;12053;48.878;9.632;2022-12-18T01:56:11;37.50;;;18.45;;
23745;SDS011;12053;48.878;9.632;2022-12-18T01:58:41;36.47;;;17.52;;
23745;SDS011;12053;48.878;9.632;2022-12-18T02:01:10;37.13;;;18.33;;
23745;SDS011;12053;48.878;9.632;2022-12-18T02:03:40;40.17;;;20.42;;
23745;SDS011;12053;48.878;9.632;2022-12-18T02:06:16;54.28;;;25.30;;
23745;SDS011;12053;48.878;9.632;2022-12-18T02:09:02;46.25;;;21.98;;
23745;SDS011;12053;48.878;9.632;2022-12-18T02:11:33;38.75;;;19.98;;
23745;SDS011;12053;48.878;9.632;2022-12-18T02:14:07;38.95;;;19.38;;
23745;SDS011;12053;48.878;9.632;2022-12-18T02:16:41;38.78;;;19.35;;
23745;SDS011;12053;48.878;9.632;2022-12-18T02:19:15;34.70;;;16.65;;
23745;SDS011;12053;48.878;9.632;2022-12-18T02:22:23;33.72;;;17.35;;
23745;SDS011;12053;48.878;9.632;2022-12-18T02:27:08;34.47;;;17.98;;
23745;SDS011;12053;48.878;9.632;2022-12-18T02:29:50;37.50;;;18.88;;
23745;SDS011;12053;48.878;9.632;2022-12-18T02:32:27;40.00;;;18.55;;
23745;SDS011;12053;48.878;9.632;2022-12-18T02:34:55;40.65;;;17.95;;
23745;SDS011;12053;48.878;9.632;2022-12-18T02:37:23;38.20;;;17.25;;
23745;SDS011;12053;48.878;9.632;2022-12-18T02:39:51;39.83;;;18.08;;
23745;SDS011;12053;48.878;9.632;2022-12-18T02:42:20;40.53;;;18.10;;
23745;SDS011;12053;48.878;9.632;2022-12-18T02:44:48;32.50;;;17.15;;
23745;SDS011;12053;48.878;9.632;2022-12-18T02:47:20;36.10;;;18.80;;
23745;SDS011;12053;48.878;9.632;2022-12-18T02:55:17;40.83;;;18.92;;
23745;SDS011;12053;48.878;9.632;2022-12-18T02:57:47;45.05;;;19.83;;
23745;SDS011;12053;48.878;9.632;2022-12-18T03:00:24;38.65;;;19.63;;
23745;SDS011;12053;48.878;9.632;2022-12-18T03:03:15;34.05;;;17.90;;
23745;SDS011;12053;48.878;9.632;2022-12-18T03:05:47;35.15;;;18.38;;
23745;SDS011;12053;48.878;9.632;2022-12-18T03:08:27;39.53;;;19.40;;
23745;SDS011;12053;48.878;9.632;2022-12-18T03:11:13;37.30;;;19.10;;
23745;SDS011;12053;48.878;9.632;2022-12-18T03:16:10;37.00;;;18.02;;
23745;SDS011;12053;48.878;9.632;2022-12-18T03:19:12;34.38;;;16.67;;
23745;SDS011;12053;48.878;9.632;2022-12-18T03:21:38;36.90;;;17.98;;
23745;SDS011;12053;48.878;9.632;2022-12-18T03:24:07;38.03;;;18.83;;
23745;SDS011;12053;48.878;9.632;2022-12-18T03:26:35;40.92;;;18.75;;
23745;SDS011;12053;48.878;9.632;2022-12-18T03:29:07;40.28;;;19.75;;
23745;SDS011;12053;48.878;9.632;2022-12-18T03:31:37;42.85;;;19.80;;
23745;SDS011;12053;48.878;9.632;2022-12-18T03:34:12;36.80;;;19.08;;
23745;SDS011;12053;48.878;9.632;2022-12-18T03:36:41;41.60;;;19.50;;
23745;SDS011;12053;48.878;9.632;2022-12-18T03:39:08;40.03;;;19.63;;
23745;SDS011;12053;48.878;9.632;2022-12-18T03:41:39;41.28;;;20.35;;
23745;SDS011;12053;48.878;9.632;2022-12-18T03:51:52;44.13;;;21.20;;
23745;SDS011;12053;48.878;9.632;2022-12-18T03:54:20;43.85;;;20.65;;
23745;SDS011;12053;48.878;9.632;2022-12-18T03:56:49;34.58;;;17.55;;
23745;SDS011;12053;48.878;9.632;2022-12-18T03:59:18;47.08;;;20.95;;
23745;SDS011;12053;48.878;9.632;2022-12-18T04:01:47;39.67;;;20.33;;
23745;SDS011;12053;48.878;9.632;2022-12-18T04:04:15;38.22;;;17.60;;
23745;SDS011;12053;48.878;9.632;2022-12-18T04:06:43;44.65;;;21.35;;
23745;SDS011;12053;48.878;9.632;2022-12-18T04:09:10;38.25;;;18.85;;
23745;SDS011;12053;48.878;9.632;2022-12-18T04:11:37;31.08;;;14.02;;
23745;SDS011;12053;48.878;9.632;2022-12-18T04:14:05;46.20;;;22.23;;
23745;SDS011;12053;48.878;9.632;2022-12-18T04:16:32;23.33;;;12.43;;
23745;SDS011;12053;48.878;9.632;2022-12-18T04:19:00;43.40;;;20.83;;
23745;SDS011;12053;48.878;9.632;2022-12-18T04:21:27;42.97;;;20.70;;
23745;SDS011;12053;48.878;9.632;2022-12-18T04:23:54;46.35;;;22.50;;
23745;SDS011;12053;48.878;9.632;2022-12-18T04:26:21;45.60;;;22.60;;
23745;SDS011;12053;48.878;9.632;2022-12-18T04:28:48;37.88;;;17.25;;
23745;SDS011;12053;48.878;9.632;2022-12-18T04:31:16;45.92;;;21.77;;
23745;SDS011;12053;48.878;9.632;2022-12-18T04:33:43;42.22;;;21.13;;
23745;SDS011;12053;48.878;9.632;2022-12-18T04:36:10;53.40;;;22.83;;
23745;SDS011;12053;48.878;9.632;2022-12-18T04:38:38;43.75;;;21.42;;
23745;SDS011;12053;48.878;9.632;2022-12-18T04:41:05;45.45;;;22.33;;
23745;SDS011;12053;48.878;9.632;2022-12-18T04:43:33;48.47;;;24.35;;
23745;SDS011;12053;48.878;9.632;2022-12-18T04:46:06;50.35;;;22.63;;
23745;SDS011;12053;48.878;9.632;2022-12-18T04:48:34;49.90;;;22.60;;
23745;SDS011;12053;48.878;9.632;2022-12-18T04:51:02;49.38;;;22.40;;
23745;SDS011;12053;48.878;9.632;2022-12-18T04:53:29;47.13;;;23.17;;
23745;SDS011;12053;48.878;9.632;2022-12-18T04:56:08;49.53;;;22.70;;
23745;SDS011;12053;48.878;9.632;2022-12-18T04:58:35;42.47;;;19.17;;
23745;SDS011;12053;48.878;9.632;2022-12-18T05:01:03;45.83;;;21.35;;
23745;SDS011;12053;48.878;9.632;2022-12-18T05:03:30;47.80;;;22.83;;
23745;SDS011;12053;48.878;9.632;2022-12-18T05:05:58;48.65;;;22.30;;
23745;SDS011;12053;48.878;9.632;2022-12-18T05:08:25;52.72;;;23.92;;
23745;SDS011;12053;48.878;9.632;2022-12-18T05:11:02;45.53;;;21.90;;
23745;SDS011;12053;48.878;9.632;2022-12-18T05:13:31;50.38;;;22.30;;
23745;SDS011;12053;48.878;9.632;2022-12-18T05:15:58;49.95;;;20.98;;
23745;SDS011;12053;48.878;9.632;2022-12-18T05:18:25;45.22;;;17.45;;
23745;SDS011;12053;48.878;9.632;2022-12-18T05:20:53;49.40;;;21.25;;
23745;SDS011;12053;48.878;9.632;2022-12-18T05:23:21;41.58;;;16.80;;
23745;SDS011;12053;48.878;9.632;2022-12-18T05:25:56;37.95;;;16.83;;
23745;SDS011;12053;48.878;9.632;2022-12-18T05:28:24;37.10;;;15.85;;
23745;SDS011;12053;48.878;9.632;2022-12-18T05:30:52;52.47;;;23.80;;
23745;SDS011;12053;48.878;9.632;2022-12-18T05:33:20;53.55;;;23.13;;
23745;SDS011;12053;48.878;9.632;2022-12-18T05:35:54;48.10;;;23.13;;
23745;SDS011;12053;48.878;9.632;2022-12-18T05:38:22;45.17;;;20.95;;
23745;SDS011;12053;48.878;9.632;2022-12-18T05:40:49;54.03;;;22.27;;
23745;SDS011;12053;48.878;9.632;2022-12-18T05:43:17;56.97;;;23.40;;
23745;SDS011;12053;48.878;9.632;2022-12-18T05:45:47;50.13;;;23.45;;
23745;SDS011;12053;48.878;9.632;2022-12-18T05:48:14;44.97;;;18.60;;
23745;SDS011;12053;48.878;9.632;2022-12-18T05:50:42;51.78;;;21.80;;
23745;SDS011;12053;48.878;9.632;2022-12-18T05:53:11;61.47;;;26.60;;
23745;SDS011;12053;48.878;9.632;2022-12-18T05:55:39;66.13;;;24.58;;
23745;SDS011;12053;48.878;9.632;2022-12-18T05:58:07;60.97;;;24.38;;
23745;SDS011;12053;48.878;9.632;2022-12-18T06:00:35;62.13;;;28.38;;
23745;SDS011;12053;48.878;9.632;2022-12-18T06:03:06;62.07;;;26.50;;
23745;SDS011;12053;48.878;9.632;2022-12-18T06:05:34;62.58;;;25.60;;
23745;SDS011;12053;48.878;9.632;2022-12-18T06:08:03;55.80;;;21.52;;
23745;SDS011;12053;48.878;9.632;2022-12-18T06:10:30;56.08;;;23.58;;
23745;SDS011;12053;48.878;9.632;2022-12-18T06:12:59;54.13;;;22.70;;
23745;SDS011;12053;48.878;9.632;2022-12-18T06:15:27;48.95;;;20.33;;
23745;SDS011;12053;48.878;9.632;2022-12-18T06:17:54;56.65;;;21.40;;
23745;SDS011;12053;48.878;9.632;2022-12-18T06:20:21;44.30;;;19.67;;
23745;SDS011;12053;48.878;9.632;2022-12-18T06:22:53;53.58;;;20.98;;
23745;SDS011;12053;48.878;9.632;2022-12-18T06:25:20;34.20;;;14.82;;
23745;SDS011;12053;48.878;9.632;2022-12-18T06:27:47;46.92;;;18.98;;
23745;SDS011;12053;48.878;9.632;2022-12-18T06:30:15;53.92;;;22.52;;
23745;SDS011;12053;48.878;9.632;2022-12-18T06:32:42;37.13;;;16.52;;
23745;SDS011;12053;48.878;9.632;2022-12-18T06:35:14;57.15;;;26.45;;
23745;SDS011;12053;48.878;9.632;2022-12-18T06:37:41;55.03;;;21.88;;
23745;SDS011;12053;48.878;9.632;2022-12-18T06:40:08;61.80;;;26.13;;
23745;SDS011;12053;48.878;9.632;2022-12-18T06:42:35;46.97;;;19.90;;
23745;SDS011;12053;48.878;9.632;2022-12-18T06:45:03;61.00;;;24.98;;
23745;SDS011;12053;48.878;9.632;2022-12-18T06:47:30;55.63;;;22.45;;
23745;SDS011;12053;48.878;9.632;2022-12-18T06:49:58;59.72;;;24.38;;
23745;SDS011;12053;48.878;9.632;2022-12-18T06:52:25;54.97;;;20.85;;
23745;SDS011;12053;48.878;9.632;2022-12-18T06:54:52;57.30;;;22.98;;
23745;SDS011;12053;48.878;9.632;2022-12-18T06:57:19;56.30;;;23.67;;
23745;SDS011;12053;48.878;9.632;2022-12-18T06:59:47;49.85;;;20.17;;
23745;SDS011;12053;48.878;9.632;2022-12-18T07:02:14;55.53;;;22.88;;
23745;SDS011;12053;48.878;9.632;2022-12-18T07:04:41;46.17;;;17.25;;
23745;SDS011;12053;48.878;9.632;2022-12-18T07:07:08;50.58;;;20.25;;
23745;SDS011;12053;48.878;9.632;2022-12-18T07:09:36;51.67;;;21.45;;
23745;SDS011;12053;48.878;9.632;2022-12-18T07:12:03;63.17;;;24.70;;
23745;SDS011;12053;48.878;9.632;2022-12-18T07:14:31;62.17;;;24.95;;
23745;SDS011;12053;48.878;9.632;2022-12-18T07:16:58;57.72;;;22.83;;
23745;SDS011;12053;48.878;9.632;2022-12-18T07:19:25;52.05;;;20.10;;
23745;SDS011;12053;48.878;9.632;2022-12-18T07:21:52;58.75;;;22.30;;
23745;SDS011;12053;48.878;9.632;2022-12-18T07:24:20;57.10;;;22.92;;
23745;SDS011;12053;48.878;9.632;2022-12-18T07:26:47;56.50;;;23.02;;
23745;SDS011;12053;48.878;9.632;2022-12-18T07:29:14;60.35;;;23.83;;
23745;SDS011;12053;48.878;9.632;2022-12-18T07:31:41;60.63;;;24.55;;
23745;SDS011;12053;48.878;9.632;2022-12-18T07:34:12;61.05;;;25.33;;
23745;SDS011;12053;48.878;9.632;2022-12-18T07:36:39;63.88;;;24.63;;
23745;SDS011;12053;48.878;9.632;2022-12-18T07:39:06;60.72;;;25.75;;
23745;SDS011;12053;48.878;9.632;2022-12-18T07:41:35;50.75;;;19.63;;
23745;SDS011;12053;48.878;9.632;2022-12-18T07:44:08;65.53;;;26.37;;
23745;SDS011;12053;48.878;9.632;2022-12-18T07:46:35;61.42;;;25.52;;
23745;SDS011;12053;48.878;9.632;2022-12-18T07:49:02;59.65;;;22.52;;
23745;SDS011;12053;48.878;9.632;2022-12-18T07:51:29;56.88;;;24.83;;
23745;SDS011;12053;48.878;9.632;2022-12-18T07:53:56;54.25;;;22.27;;
23745;SDS011;12053;48.878;9.632;2022-12-18T07:56:24;53.75;;;22.98;;
23745;SDS011;12053;48.878;9.632;2022-12-18T07:58:54;59.10;;;22.90;;
23745;SDS011;12053;48.878;9.632;2022-12-18T08:01:21;52.30;;;21.08;;
23745;SDS011;12053;48.878;9.632;2022-12-18T08:03:49;47.83;;;19.98;;
23745;SDS011;12053;48.878;9.632;2022-12-18T08:06:17;52.95;;;21.92;;
23745;SDS011;12053;48.878;9.632;2022-12-18T08:08:47;53.95;;;21.05;;
23745;SDS011;12053;48.878;9.632;2022-12-18T08:11:15;48.85;;;22.05;;
23745;SDS011;12053;48.878;9.632;2022-12-18T08:13:42;54.70;;;23.55;;
23745;SDS011;12053;48.878;9.632;2022-12-18T08:16:09;42.45;;;19.17;;
23745;SDS011;12053;48.878;9.632;2022-12-18T08:18:37;49.88;;;22.60;;
23745;SDS011;12053;48.878;9.632;2022-12-18T08:23:58;49.35;;;20.23;;
23745;SDS011;12053;48.878;9.632;2022-12-18T08:26:27;47.80;;;21.45;;
23745;SDS011;12053;48.878;9.632;2022-12-18T08:28:54;42.45;;;18.17;;
23745;SDS011;12053;48.878;9.632;2022-12-18T08:31:22;42.83;;;17.92;;
23745;SDS011;12053;48.878;9.632;2022-12-18T08:33:50;45.80;;;20.85;;
23745;SDS011;12053;48.878;9.632;2022-12-18T08:36:19;46.25;;;19.75;;
23745;SDS011;12053;48.878;9.632;2022-12-18T08:38:46;38.90;;;19.33;;
23745;SDS011;12053;48.878;9.632;2022-12-18T08:41:14;45.00;;;21.33;;
23745;SDS011;12053;48.878;9.632;2022-12-18T08:43:42;45.25;;;19.63;;
23745;SDS011;12053;48.878;9.632;2022-12-18T08:46:31;45.72;;;18.77;;
23745;SDS011;12053;48.878;9.632;2022-12-18T08:48:58;45.92;;;21.17;;
23745;SDS011;12053;48.878;9.632;2022-12-18T08:51:26;46.67;;;20.23;;
23745;SDS011;12053;48.878;9.632;2022-12-18T08:53:53;34.08;;;15.77;;
23745;SDS011;12053;48.878;9.632;2022-12-18T08:56:20;43.92;;;18.98;;
23745;SDS011;12053;48.878;9.632;2022-12-18T08:58:47;35.10;;;17.08;;
23745;SDS011;12053;48.878;9.632;2022-12-18T09:01:17;40.40;;;19.30;;
23745;SDS011;12053;48.878;9.632;2022-12-18T09:03:48;42.45;;;19.38;;
23745;SDS011;12053;48.878;9.632;2022-12-18T09:06:16;42.42;;;19.65;;
23745;SDS011;12053;48.878;9.632;2022-12-18T09:08:44;41.33;;;20.05;;
23745;SDS011;12053;48.878;9.632;2022-12-18T09:11:17;40.08;;;18.15;;
23745;SDS011;12053;48.878;9.632;2022-12-18T09:13:45;41.30;;;19.60;;
23745;SDS011;12053;48.878;9.632;2022-12-18T09:16:12;39.50;;;18.88;;
23745;SDS011;12053;48.878;9.632;2022-12-18T09:18:40;36.30;;;16.98;;
23745;SDS011;12053;48.878;9.632;2022-12-18T09:21:08;38.10;;;18.35;;
23745;SDS011;12053;48.878;9.632;2022-12-18T09:23:36;38.20;;;17.17;;
23745;SDS011;12053;48.878;9.632;2022-12-18T09:26:03;37.83;;;17.92;;
23745;SDS011;12053;48.878;9.632;2022-12-18T09:28:30;38.05;;;17.38;;
23745;SDS011;12053;48.878;9.632;2022-12-18T09:30:57;38.67;;;18.80;;
23745;SDS011;12053;48.878;9.632;2022-12-18T09:33:25;39.53;;;17.60;;
23745;SDS011;12053;48.878;9.632;2022-12-18T09:35:53;35.65;;;14.52;;
23745;SDS011;12053;48.878;9.632;2022-12-18T09:38:20;33.05;;;15.77;;
23745;SDS011;12053;48.878;9.632;2022-12-18T09:40:50;33.28;;;15.77;;
23745;SDS011;12053;48.878;9.632;2022-12-18T09:43:20;35.85;;;18.02;;
23745;SDS011;12053;48.878;9.632;2022-12-18T09:45:50;25.30;;;13.20;;
23745;SDS011;12053;48.878;9.632;2022-12-18T09:48:20;30.67;;;15.55;;
23745;SDS011;12053;48.878;9.632;2022-12-18T09:50:49;34.40;;;15.38;;
23745;SDS011;12053;48.878;9.632;2022-12-18T09:53:21;33.17;;;16.77;;
23745;SDS011;12053;48.878;9.632;2022-12-18T09:55:49;33.22;;;17.40;;
23745;SDS011;12053;48.878;9.632;2022-12-18T10:00:58;37.17;;;17.38;;
23745;SDS011;12053;48.878;9.632;2022-12-18T10:03:25;29.63;;;15.30;;
23745;SDS011;12053;48.878;9.632;2022-12-18T10:11:25;34.28;;;16.08;;
23745;SDS011;12053;48.878;9.632;2022-12-18T10:14:36;27.05;;;13.68;;
23745;SDS011;12053;48.878;9.632;2022-12-18T10:26:38;26.67;;;13.52;;
23745;SDS011;12053;48.878;9.632;2022-12-18T10:29:12;34.28;;;15.38;;
23745;SDS011;12053;48.878;9.632;2022-12-18T10:31:39;32.28;;;15.95;;
23745;SDS011;12053;48.878;9.632;2022-12-18T10:34:10;31.02;;;15.15;;
23745;SDS011;12053;48.878;9.632;2022-12-18T10:36:37;30.75;;;14.65;;
23745;SDS011;12053;48.878;9.632;2022-12-18T10:39:15;32.65;;;15.80;;
23745;SDS011;12053;48.878;9.632;2022-12-18T10:41:43;34.15;;;16.17;;
23745;SDS011;12053;48.878;9.632;2022-12-18T10:46:45;35.83;;;17.98;;
23745;SDS011;12053;48.878;9.632;2022-12-18T10:49:19;34.95;;;16.48;;
23745;SDS011;12053;48.878;9.632;2022-12-18T10:51:48;34.25;;;17.75;;
23745;SDS011;12053;48.878;9.632;2022-12-18T10:54:17;26.80;;;13.07;;
23745;SDS011;12053;48.878;9.632;2022-12-18T10:56:44;38.38;;;16.92;;
23745;SDS011;12053;48.878;9.632;2022-12-18T10:59:13;38.25;;;17.95;;
23745;SDS011;12053;48.878;9.632;2022-12-18T11:01:56;33.25;;;16.88;;
23745;SDS011;12053;48.878;9.632;2022-12-18T11:04:28;34.72;;;15.82;;
23745;SDS011;12053;48.878;9.632;2022-12-18T11:07:03;34.85;;;16.83;;
23745;SDS011;12053;48.878;9.632;2022-12-18T11:09:34;35.58;;;17.52;;
23745;SDS011;12053;48.878;9.632;2022-12-18T11:12:03;34.63;;;17.17;;
23745;SDS011;12053;48.878;9.632;2022-12-18T11:14:33;34.28;;;16.92;;
23745;SDS011;12053;48.878;9.632;2022-12-18T11:17:00;35.40;;;18.02;;
23745;SDS011;12053;48.878;9.632;2022-12-18T11:19:55;39.13;;;18.80;;
23745;SDS011;12053;48.878;9.632;2022-12-18T11:22:24;34.72;;;16.48;;
23745;SDS011;12053;48.878;9.632;2022-12-18T11:25:03;31.27;;;14.57;;
23745;SDS011;12053;48.878;9.632;2022-12-18T11:27:56;34.15;;;16.98;;
23745;SDS011;12053;48.878;9.632;2022-12-18T11:32:53;38.05;;;18.85;;
23745;SDS011;12053;48.878;9.632;2022-12-18T11:37:59;30.88;;;15.75;;
23745;SDS011;12053;48.878;9.632;2022-12-18T11:40:35;32.83;;;16.10;;
23745;SDS011;12053;48.878;9.632;2022-12-18T11:45:35;30.08;;;15.27;;
23745;SDS011;12053;48.878;9.632;2022-12-18T11:50:51;36.95;;;16.85;;
23745;SDS011;12053;48.878;9.632;2022-12-18T11:53:18;43.07;;;21.47;;
23745;SDS011;12053;48.878;9.632;2022-12-18T12:06:20;37.28;;;17.58;;
23745;SDS011;12053;48.878;9.632;2022-12-18T12:19:46;27.92;;;13.68;;
23745;SDS011;12053;48.878;9.632;2022-12-18T12:27:16;39.22;;;18.60;;
23745;SDS011;12053;48.878;9.632;2022-12-18T12:30:07;32.22;;;15.85;;
23745;SDS011;12053;48.878;9.632;2022-12-18T12:40:38;33.40;;;14.98;;
23745;SDS011;12053;48.878;9.632;2022-12-18T12:46:15;32.38;;;16.48;;
23745;SDS011;12053;48.878;9.632;2022-12-18T12:48:46;36.25;;;18.63;;
23745;SDS011;12053;48.878;9.632;2022-12-18T12:51:18;34.78;;;17.05;;
23745;SDS011;12053;48.878;9.632;2022-12-18T12:56:14;34.88;;;16.67;;
23745;SDS011;12053;48.878;9.632;2022-12-18T12:58:59;35.78;;;18.20;;
23745;SDS011;12053;48.878;9.632;2022-12-18T13:01:41;32.03;;;16.02;;
23745;SDS011;12053;48.878;9.632;2022-12-18T13:07:05;33.13;;;14.73;;
23745;SDS011;12053;48.878;9.632;2022-12-18T13:09:34;36.78;;;16.45;;
23745;SDS011;12053;48.878;9.632;2022-12-18T13:12:04;38.30;;;17.27;;
23745;SDS011;12053;48.878;9.632;2022-12-18T13:14:50;36.72;;;18.13;;
23745;SDS011;12053;48.878;9.632;2022-12-18T13:19:49;35.00;;;16.63;;
23745;SDS011;12053;48.878;9.632;2022-12-18T13:22:24;34.35;;;16.52;;
23745;SDS011;12053;48.878;9.632;2022-12-18T13:24:51;34.97;;;16.33;;
23745;SDS011;12053;48.878;9.632;2022-12-18T13:30:38;36.00;;;15.90;;
23745;SDS011;12053;48.878;9.632;2022-12-18T13:38:34;40.08;;;17.08;;
23745;SDS011;12053;48.878;9.632;2022-12-18T13:41:03;37.65;;;16.02;;
23745;SDS011;12053;48.878;9.632;2022-12-18T13:43:32;30.70;;;16.20;;
23745;SDS011;12053;48.878;9.632;2022-12-18T13:48:29;34.35;;;17.35;;
23745;SDS011;12053;48.878;9.632;2022-12-18T13:56:16;39.67;;;18.50;;
23745;SDS011;12053;48.878;9.632;2022-12-18T13:58:43;39.83;;;18.55;;
23745;SDS011;12053;48.878;9.632;2022-12-18T14:01:21;36.33;;;17.02;;
23745;SDS011;12053;48.878;9.632;2022-12-18T14:04:08;40.72;;;18.08;;
23745;SDS011;12053;48.878;9.632;2022-12-18T14:06:35;37.30;;;18.10;;
23745;SDS011;12053;48.878;9.632;2022-12-18T14:09:02;37.10;;;16.80;;
23745;SDS011;12053;48.878;9.632;2022-12-18T14:11:34;34.53;;;16.13;;
23745;SDS011;12053;48.878;9.632;2022-12-18T14:14:03;35.97;;;16.60;;
23745;SDS011;12053;48.878;9.632;2022-12-18T14:16:33;35.50;;;16.20;;
23745;SDS011;12053;48.878;9.632;2022-12-18T14:19:02;33.40;;;17.60;;
23745;SDS011;12053;48.878;9.632;2022-12-18T14:21:40;32.10;;;17.27;;
23745;SDS011;12053;48.878;9.632;2022-12-18T14:24:13;33.63;;;17.07;;
23745;SDS011;12053;48.878;9.632;2022-12-18T14:26:44;36.92;;;17.52;;
23745;SDS011;12053;48.878;9.632;2022-12-18T14:34:47;39.65;;;18.83;;
23745;SDS011;12053;48.878;9.632;2022-12-18T14:37:15;38.60;;;19.00;;
23745;SDS011;12053;48.878;9.632;2022-12-18T14:39:55;41.72;;;19.25;;
23745;SDS011;12053;48.878;9.632;2022-12-18T14:42:25;38.65;;;18.38;;
23745;SDS011;12053;48.878;9.632;2022-12-18T14:47:42;43.05;;;19.58;;
23745;SDS011;12053;48.878;9.632;2022-12-18T14:50:13;42.10;;;20.52;;
23745;SDS011;12053;48.878;9.632;2022-12-18T14:52:41;42.22;;;19.58;;
23745;SDS011;12053;48.878;9.632;2022-12-18T14:55:15;43.10;;;19.83;;
23745;SDS011;12053;48.878;9.632;2022-12-18T14:57:42;46.30;;;21.05;;
23745;SDS011;12053;48.878;9.632;2022-12-18T15:00:44;43.85;;;22.23;;
23745;SDS011;12053;48.878;9.632;2022-12-18T15:03:05;41.63;;;19.67;;
23745;SDS011;12053;48.878;9.632;2022-12-18T15:05:34;46.95;;;22.20;;
23745;SDS011;12053;48.878;9.632;2022-12-18T15:08:02;37.92;;;16.92;;
23745;SDS011;12053;48.878;9.632;2022-12-18T15:10:30;44.10;;;19.98;;
23745;SDS011;12053;48.878;9.632;2022-12-18T15:18:04;42.65;;;19.25;;
23745;SDS011;12053;48.878;9.632;2022-12-18T15:25:44;38.47;;;18.88;;
23745;SDS011;12053;48.878;9.632;2022-12-18T15:28:26;41.70;;;17.77;;
23745;SDS011;12053;48.878;9.632;2022-12-18T15:33:30;42.53;;;21.55;;
23745;SDS011;12053;48.878;9.632;2022-12-18T15:36:02;42.42;;;19.83;;
23745;SDS011;12053;48.878;9.632;2022-12-18T15:38:30;45.28;;;18.73;;
23745;SDS011;12053;48.878;9.632;2022-12-18T15:40:57;42.10;;;18.42;;
23745;SDS011;12053;48.878;9.632;2022-12-18T15:43:26;40.83;;;19.40;;
23745;SDS011;12053;48.878;9.632;2022-12-18T15:46:04;45.08;;;18.58;;
23745;SDS011;12053;48.878;9.632;2022-12-18T15:48:35;44.65;;;18.52;;
23745;SDS011;12053;48.878;9.632;2022-12-18T15:53:32;46.40;;;20.90;;
23745;SDS011;12053;48.878;9.632;2022-12-18T15:56:00;42.75;;;18.45;;
23745;SDS011;12053;48.878;9.632;2022-12-18T15:58:45;44.28;;;20.27;;
23745;SDS011;12053;48.878;9.632;2022-12-18T16:01:13;48.63;;;21.40;;
23745;SDS011;12053;48.878;9.632;2022-12-18T16:03:40;45.70;;;19.98;;
23745;SDS011;12053;48.878;9.632;2022-12-18T16:06:08;49.55;;;20.73;;
23745;SDS011;12053;48.878;9.632;2022-12-18T16:08:36;42.95;;;17.90;;
23745;SDS011;12053;48.878;9.632;2022-12-18T16:11:04;49.45;;;22.00;;
23745;SDS011;12053;48.878;9.632;2022-12-18T16:13:32;48.50;;;21.17;;
23745;SDS011;12053;48.878;9.632;2022-12-18T16:15:59;50.05;;;20.80;;
23745;SDS011;12053;48.878;9.632;2022-12-18T16:18:27;54.17;;;21.20;;
23745;SDS011;12053;48.878;9.632;2022-12-18T16:20:54;43.40;;;18.10;;
23745;SDS011;12053;48.878;9.632;2022-12-18T16:23:21;43.60;;;18.05;;
23745;SDS011;12053;48.878;9.632;2022-12-18T16:25:48;38.97;;;19.30;;
23745;SDS011;12053;48.878;9.632;2022-12-18T16:28:15;42.83;;;19.55;;
23745;SDS011;12053;48.878;9.632;2022-12-18T16:30:43;36.90;;;16.95;;
23745;SDS011;12053;48.878;9.632;2022-12-18T16:33:11;46.25;;;20.30;;
23745;SDS011;12053;48.878;9.632;2022-12-18T16:35:38;42.10;;;19.48;;
23745;SDS011;12053;48.878;9.632;2022-12-18T16:38:05;44.38;;;19.85;;
23745;SDS011;12053;48.878;9.632;2022-12-18T16:40:32;38.70;;;16.10;;
23745;SDS011;12053;48.878;9.632;2022-12-18T16:43:19;43.88;;;19.13;;
23745;SDS011;12053;48.878;9.632;2022-12-18T16:45:48;48.72;;;20.38;;
23745;SDS011;12053;48.878;9.632;2022-12-18T16:48:16;48.08;;;22.48;;
23745;SDS011;12053;48.878;9.632;2022-12-18T16:50:43;52.45;;;22.67;;
23745;SDS011;12053;48.878;9.632;2022-12-18T16:53:10;53.72;;;22.83;;
23745;SDS011;12053;48.878;9.632;2022-12-18T16:55:37;50.85;;;22.85;;